Dalhart Municipal Airport
KDHT : now visible

Airfield :











YOU CAN JOIN US ON...

 
LOGIN :

Register | Disclaimer

   EN    FR    IT 

 









Legend :    VFR   Marginal VFR   IFR   Intensive IFR   Very Intensive IFR
Visi :
Ceiling :
>= 8 km
>= 3000ft
5 to 8 km
1000 to 3000 ft
1500m to 5 km
500 to 1000 ft
800 to 1500m
200 to 500 ft
< 800m
< 200 ft
Symbols :   Thunderstorms  Fog  Heavy snow  Heavy precipitations  Wind > 20 kt






- Airport Elevation : 3991 ft


KDHT - Dalhart Municipal

CURRENT METAR :
  • 011753Z AUTO 18014KT 10SM CLR 21/M01 A2976 RMK AO2 SLP037 T02061011 10206 20072 58016

EXPIRED METARs :
  • 011653Z AUTO 18014KT 10SM SCT120 17/M02 A2980 RMK AO2 SLP053 T01721017
  • 011553Z AUTO 18011KT 10SM CLR 15/00 A2981 RMK AO2 SLP061 T01500000

TAF KDHT
Valid from the 01 at 18:00 until the 02 at 18:00 UTC


011740Z 0118/0218 20015G26KT P6SM SCT250
FM020200 25011KT P6SM SCT200
FM021500 28016G24KT P6SM SKC



MET'MAP, your aeronautical weather chart ! - Copyright ORBIFLY December 2007 - Disclaimer

ORBIFLY MET'MAP TEAM :

Programming & Development : Alexandra Zaïnal
Concept & original design : Baudouin d'Aumeries
Assistance for programming : Marc-Olivier Méhu
Technical & hardware support : Manuel Goepfert

Contact : metmap@orbifly.com




SOURCES & CREDITS :

   NOAA       Earth
Advisory